Time;durP1;ratioP1;P1;durP2;ratioP2;P2;SDS_P1;SDS_P2;PMS_P1;PMS_P2;Temp;Humidity;BMP_temperature;BMP_pressure;BME280_temperature;BME280_humidity;BME280_pressure;Samples;Min_cycle;Max_cycle;Signal;HPM_P1;HPM_P2
2021/11/29 00:04:31;;;;;;;20.95;19.02;;;;;;;-1.11;89.22;98273.13;10398538;28;20049;-71
2021/11/29 00:09:33;;;;;;;21.85;19.73;;;;;;;-0.93;89.93;98277.19;10417086;28;20358;-71
2021/11/29 00:14:36;;;;;;;21.23;19.05;;;;;;;-1.05;89.97;98273.91;10416502;28;20063;-71
2021/11/29 00:19:38;;;;;;;20.88;18.92;;;;;;;-0.98;89.59;98287.56;10416430;28;20073;-71
2021/11/29 00:24:40;;;;;;;20.42;18.52;;;;;;;-1.06;89.93;98286.84;10398570;28;20116;-71
2021/11/29 00:29:44;;;;;;;22.85;20.52;;;;;;;-0.98;89.89;98291.88;10416132;28;20084;-71
2021/11/29 00:34:46;;;;;;;19.85;17.95;;;;;;;-1.03;89.78;98299.66;10415653;28;20068;-71
2021/11/29 00:39:47;;;;;;;21.60;19.50;;;;;;;-1.09;89.73;98305.78;10382331;28;20057;-71
2021/11/29 00:44:49;;;;;;;25.45;19.17;;;;;;;-1.17;90.08;98310.16;10398189;28;20045;-71
2021/11/29 00:49:51;;;;;;;23.05;19.38;;;;;;;-1.13;90.45;98311.00;10415886;28;20058;-71
2021/11/29 00:54:53;;;;;;;22.15;19.90;;;;;;;-1.18;90.74;98317.94;10415379;28;20128;-71
2021/11/29 00:59:55;;;;;;;24.23;21.13;;;;;;;-1.15;91.74;98321.34;10397655;28;20049;-71
2021/11/29 01:04:56;;;;;;;22.38;20.15;;;;;;;-1.05;91.89;98325.50;10397354;28;20075;-71
2021/11/29 01:09:58;;;;;;;21.10;19.08;;;;;;;-0.91;91.55;98329.63;10398257;28;20475;-71
2021/11/29 01:15:00;;;;;;;21.20;18.90;;;;;;;-0.56;90.06;98334.28;10415436;28;20045;-71
2021/11/29 01:20:06;;;;;;;18.92;17.33;;;;;;;-0.49;88.57;98338.47;10414977;28;20065;-71
2021/11/29 01:25:08;;;;;;;20.35;18.17;;;;;;;-0.39;89.16;98341.81;10415069;28;20041;-71
2021/11/29 01:30:11;;;;;;;19.63;17.88;;;;;;;-0.44;89.44;98344.44;10414658;28;20049;-71
2021/11/29 01:35:13;;;;;;;21.33;18.83;;;;;;;-0.25;89.54;98339.84;10414443;28;20041;-72
2021/11/29 01:40:15;;;;;;;19.38;17.58;;;;;;;0.24;87.56;98344.22;10414365;28;20046;-71
2021/11/29 01:45:17;;;;;;;18.95;17.35;;;;;;;0.30;86.42;98348.41;10399277;28;20042;-71
2021/11/29 01:50:19;;;;;;;17.67;16.23;;;;;;;0.48;85.44;98348.94;10421474;28;20041;-72
2021/11/29 01:55:21;;;;;;;17.63;16.13;;;;;;;0.46;84.58;98353.28;10421726;28;20044;-72
2021/11/29 02:00:27;;;;;;;18.25;16.67;;;;;;;0.52;83.94;98356.63;10404874;28;20046;-72
2021/11/29 02:05:30;;;;;;;19.55;17.65;;;;;;;0.34;84.54;98350.91;10422376;28;20041;-73
2021/11/29 02:10:33;;;;;;;17.38;15.98;;;;;;;0.48;83.81;98343.75;10403426;28;20503;-73
2021/11/29 02:15:35;;;;;;;16.77;15.38;;;;;;;0.50;83.86;98343.75;10403496;28;20041;-71
2021/11/29 02:20:37;;;;;;;17.95;16.02;;;;;;;0.50;83.50;98343.75;10421106;28;20041;-72
2021/11/29 02:25:38;;;;;;;18.13;16.52;;;;;;;0.52;84.02;98356.63;10420601;28;20100;-73
2021/11/29 02:30:40;;;;;;;18.65;17.17;;;;;;;0.61;83.13;98359.06;10421109;28;20041;-71
2021/11/29 02:35:42;;;;;;;16.95;15.55;;;;;;;0.55;83.56;98364.34;10402363;28;20049;-73
2021/11/29 02:40:44;;;;;;;17.70;16.10;;;;;;;0.38;84.73;98372.41;10420472;28;20076;-72
2021/11/29 02:45:46;;;;;;;18.27;16.58;;;;;;;0.24;85.81;98370.91;10402537;28;20124;-72
2021/11/29 02:50:48;;;;;;;17.42;16.02;;;;;;;0.17;86.43;98374.44;10402101;28;20120;-73
2021/11/29 02:55:49;;;;;;;19.20;17.30;;;;;;;0.16;86.43;98383.09;10418723;28;20069;-73
2021/11/29 03:00:51;;;;;;;19.92;17.95;;;;;;;0.12;86.47;98373.69;10419950;28;20045;-73
2021/11/29 03:05:53;;;;;;;17.77;16.33;;;;;;;0.16;86.25;98372.75;10418591;28;20460;-73
2021/11/29 03:10:55;;;;;;;19.98;18.17;;;;;;;0.11;86.86;98373.72;10419075;28;20120;-72
2021/11/29 03:15:57;;;;;;;18.13;16.55;;;;;;;0.15;86.63;98367.63;10419229;28;20125;-72
2021/11/29 03:20:58;;;;;;;18.63;17.17;;;;;;;0.05;87.00;98372.09;10419054;28;20573;-73
2021/11/29 03:26:05;;;;;;;19.08;17.42;;;;;;;0.03;87.68;98371.25;10418874;28;20065;-72
2021/11/29 03:31:08;;;;;;;19.08;17.10;;;;;;;0.05;87.45;98372.09;10418559;28;20052;-72
2021/11/29 03:36:10;;;;;;;20.33;18.80;;;;;;;0.00;87.83;98371.31;10400618;28;20045;-72
2021/11/29 03:41:12;;;;;;;19.98;17.23;;;;;;;0.14;87.39;98371.09;10418815;28;20498;-73
2021/11/29 03:46:15;;;;;;;21.50;18.13;;;;;;;0.06;87.92;98371.22;10418520;28;20033;-73
2021/11/29 03:51:17;;;;;;;20.45;18.42;;;;;;;0.19;87.69;98369.28;10400441;28;20052;-72
2021/11/29 03:56:19;;;;;;;19.52;17.73;;;;;;;0.13;87.81;98367.63;10399815;28;20075;-71
2021/11/29 04:01:21;;;;;;;20.42;18.73;;;;;;;0.21;87.93;98368.38;10417580;28;20128;-72
2021/11/29 04:06:23;;;;;;;19.30;17.77;;;;;;;0.30;87.17;98364.78;10417543;28;20063;-72
2021/11/29 04:11:25;;;;;;;21.15;19.42;;;;;;;0.25;87.34;98375.19;10398673;28;20128;-72
2021/11/29 04:16:27;;;;;;;19.98;18.17;;;;;;;0.28;87.71;98379.47;10416775;28;20041;-73
2021/11/29 04:21:29;;;;;;;19.90;18.27;;;;;;;0.18;87.61;98377.91;10416805;28;20047;-72
2021/11/29 04:26:31;;;;;;;19.45;17.95;;;;;;;0.21;87.49;98389.03;10418381;28;20103;-71
2021/11/29 04:31:33;;;;;;;21.80;19.70;;;;;;;0.20;88.29;98374.41;10398598;28;20498;-72
2021/11/29 04:36:35;;;;;;;20.85;19.10;;;;;;;0.24;87.90;98388.13;10400125;28;20037;-72
2021/11/29 04:41:36;;;;;;;19.95;18.02;;;;;;;0.25;88.27;98388.09;10415556;28;20124;-72
2021/11/29 04:46:38;;;;;;;21.10;19.17;;;;;;;0.22;88.23;98395.94;10382035;28;20567;-72
2021/11/29 04:51:40;;;;;;;20.73;18.50;;;;;;;0.28;88.91;98401.88;10415150;28;20053;-73
2021/11/29 04:56:42;;;;;;;19.27;17.60;;;;;;;0.28;88.54;98399.28;10398259;28;20515;-72
2021/11/29 05:01:44;;;;;;;21.92;19.92;;;;;;;0.27;88.86;98403.59;10415717;28;20121;-72
2021/11/29 05:06:46;;;;;;;25.98;23.25;;;;;;;0.28;88.92;98407.88;10415920;28;20040;-73
2021/11/29 05:11:49;;;;;;;22.30;20.20;;;;;;;0.61;88.09;98413.34;10415764;28;20054;-72
2021/11/29 05:16:51;;;;;;;22.27;20.38;;;;;;;0.84;85.67;98423.28;10415282;28;20037;-72
2021/11/29 05:21:53;;;;;;;21.33;19.48;;;;;;;0.82;85.78;98425.91;10420553;28;20058;-73
2021/11/29 05:26:55;;;;;;;28.83;20.02;;;;;;;1.12;84.24;98424.47;10424403;28;20073;-72
2021/11/29 05:31:57;;;;;;;19.75;17.80;;;;;;;1.05;83.84;98422.03;10423241;28;20053;-72
2021/11/29 05:36:59;;;;;;;21.58;19.33;;;;;;;0.98;83.92;98435.09;10405154;28;20460;-72
2021/11/29 05:42:00;;;;;;;20.63;18.80;;;;;;;1.18;82.88;98434.69;10422872;28;20077;-72
2021/11/29 05:47:02;;;;;;;21.00;19.00;;;;;;;1.03;83.81;98439.34;10422484;28;20127;-72
2021/11/29 05:52:05;;;;;;;21.20;19.10;;;;;;;1.06;84.00;98447.00;10423052;28;20087;-73
2021/11/29 05:57:07;;;;;;;23.00;20.95;;;;;;;1.11;83.33;98445.22;10404668;28;20117;-72
2021/11/29 06:02:09;;;;;;;23.48;21.15;;;;;;;1.08;83.33;98442.69;10423613;28;20114;-72
2021/11/29 06:07:11;;;;;;;23.88;21.55;;;;;;;0.83;84.94;98456.06;10423319;28;20045;-71
2021/11/29 06:12:13;;;;;;;24.02;21.63;;;;;;;0.95;83.98;98473.09;10423179;28;20041;-73
2021/11/29 06:17:15;;;;;;;27.27;23.67;;;;;;;0.80;85.22;98483.69;10421484;28;20112;-72
2021/11/29 06:22:16;;;;;;;26.25;24.00;;;;;;;0.83;86.04;98487.09;10403663;28;20049;-72
2021/11/29 06:27:18;;;;;;;27.05;24.55;;;;;;;0.79;86.50;98503.53;10403408;28;20049;-72
2021/11/29 06:32:20;;;;;;;26.60;23.98;;;;;;;1.03;85.29;98504.03;10420326;28;20049;-72
2021/11/29 06:37:27;;;;;;;29.00;25.42;;;;;;;1.00;85.45;98510.09;10421614;28;20037;-74
2021/11/29 06:42:29;;;;;;;28.92;25.95;;;;;;;1.07;85.45;98518.59;10421578;28;20037;-72
2021/11/29 06:47:31;;;;;;;29.13;25.67;;;;;;;1.08;84.80;98522.91;10420637;28;20447;-72
2021/11/29 06:52:33;;;;;;;34.55;25.73;;;;;;;1.24;85.38;98527.78;10420883;28;20498;-72
2021/11/29 06:57:34;;;;;;;27.80;25.00;;;;;;;1.15;85.33;98527.06;10386340;28;20128;-73
2021/11/29 07:02:39;;;;;;;27.83;24.88;;;;;;;1.10;85.75;98542.66;10420205;28;20069;-72
2021/11/29 07:07:42;;;;;;;29.73;26.65;;;;;;;1.20;85.18;98548.56;10420386;28;20052;-73
2021/11/29 07:12:44;;;;;;;27.48;24.48;;;;;;;1.21;84.94;98545.09;10402282;28;20049;-72
2021/11/29 07:17:46;;;;;;;26.33;23.80;;;;;;;1.13;85.00;98552.97;10420311;28;20037;-72
2021/11/29 07:22:48;;;;;;;28.38;24.80;;;;;;;1.10;85.65;98558.19;10401873;28;20403;-72
2021/11/29 07:27:50;;;;;;;29.77;25.00;;;;;;;1.20;85.08;98558.91;10401778;28;20041;-73
2021/11/29 07:32:56;;;;;;;27.23;24.42;;;;;;;1.23;84.83;98557.09;10420550;28;20463;-74
2021/11/29 07:37:58;;;;;;;28.75;24.85;;;;;;;1.05;86.24;98566.94;10419881;28;20049;-73
2021/11/29 07:43:04;;;;;;;35.40;27.70;;;;;;;1.08;86.20;98572.91;10418709;28;20045;-73
2021/11/29 07:48:06;;;;;;;35.60;27.10;;;;;;;1.13;86.16;98573.69;10401407;28;20443;-73
2021/11/29 07:53:08;;;;;;;32.55;27.67;;;;;;;1.15;86.55;98579.72;10418381;28;20044;-72
2021/11/29 07:58:09;;;;;;;36.83;29.80;;;;;;;1.08;87.69;98579.81;10418183;28;20046;-74
2021/11/29 08:03:11;;;;;;;41.50;28.88;;;;;;;1.06;87.33;98591.91;10399869;28;20098;-74
2021/11/29 08:08:14;;;;;;;31.80;27.30;;;;;;;1.38;86.13;98586.22;10399609;28;20049;-73
2021/11/29 08:13:16;;;;;;;34.70;28.13;;;;;;;1.22;86.47;98602.00;10400673;28;20048;-73
2021/11/29 08:18:18;;;;;;;38.45;28.60;;;;;;;1.11;87.38;98598.75;10400337;28;20104;-72
2021/11/29 08:23:20;;;;;;;34.03;26.63;;;;;;;1.28;86.46;98606.19;10417299;28;20594;-74
2021/11/29 08:28:22;;;;;;;43.10;29.80;;;;;;;1.12;87.70;98607.38;10399087;28;20133;-73
2021/11/29 08:33:24;;;;;;;34.10;27.13;;;;;;;1.37;87.01;98612.97;10416280;28;20487;-73
2021/11/29 08:38:26;;;;;;;35.10;28.58;;;;;;;1.11;88.15;98618.59;10398797;28;20045;-73
2021/11/29 08:43:28;;;;;;;37.90;28.20;;;;;;;1.37;87.37;98618.13;10399407;28;20117;-73
2021/11/29 08:48:29;;;;;;;33.50;27.70;;;;;;;1.37;87.73;98613.81;10416851;28;20049;-73
2021/11/29 08:53:31;;;;;;;35.65;28.50;;;;;;;1.34;88.34;98628.56;10399077;28;20050;-72
2021/11/29 08:58:33;;;;;;;38.42;28.17;;;;;;;1.30;88.49;98634.69;10407994;28;20427;-74
2021/11/29 09:03:35;;;;;;;40.13;30.60;;;;;;;1.33;88.26;98647.53;10427113;28;20402;-75
2021/11/29 09:08:38;;;;;;;38.80;28.15;;;;;;;1.42;88.16;98644.81;10427076;28;20049;-75
2021/11/29 09:13:42;;;;;;;33.58;28.52;;;;;;;1.57;87.71;98654.06;10425747;28;20041;-74
2021/11/29 09:18:45;;;;;;;59.60;34.05;;;;;;;1.63;87.41;98649.59;10424749;28;20056;-74
2021/11/29 09:23:47;;;;;;;53.45;33.35;;;;;;;1.68;86.28;98650.41;10407717;28;20041;-73
2021/11/29 09:28:49;;;;;;;65.75;37.38;;;;;;;1.68;86.83;98659.88;10424364;28;20049;-71
2021/11/29 09:33:51;;;;;;;70.50;41.22;;;;;;;1.70;86.26;98663.31;10422818;28;20038;-73
2021/11/29 09:38:53;;;;;;;33.38;26.80;;;;;;;1.80;85.05;98670.03;10423601;28;20064;-72
2021/11/29 09:43:55;;;;;;;50.90;32.38;;;;;;;1.90;83.92;98665.53;10406972;28;20049;-73
2021/11/29 09:48:57;;;;;;;42.63;30.52;;;;;;;1.85;85.00;98672.53;10424370;28;20038;-73
2021/11/29 09:54:10;;;;;;;56.15;35.72;;;;;;;2.01;83.94;98669.63;10423893;28;20073;-74
2021/11/29 09:59:11;;;;;;;29.33;25.92;;;;;;;2.01;84.34;98659.25;10405519;28;20410;-74
2021/11/29 10:04:13;;;;;;;42.00;28.85;;;;;;;2.00;83.44;98660.16;10422798;28;20462;-71
2021/11/29 10:09:31;;;;;;;30.65;26.15;;;;;;;2.03;84.35;98657.47;10405089;28;20037;-72
2021/11/29 10:14:33;;;;;;;;;;;;;;;2.17;82.33;98670.19;10405096;28;20485;-74
2021/11/29 10:19:37;;;;;;;37.88;26.90;;;;;;;2.20;81.47;98666.69;10404875;28;19921;-73
2021/11/29 10:24:39;;;;;;;51.88;37.92;;;;;;;2.19;82.11;98664.97;10419359;28;20056;-74
2021/11/29 10:29:55;;;;;;;27.20;24.23;;;;;;;2.02;83.74;98663.56;10389164;28;20047;-75
2021/11/29 10:34:57;;;;;;;28.50;24.55;;;;;;;2.27;81.31;98670.88;10405433;28;20041;-75
2021/11/29 10:39:59;;;;;;;29.52;25.05;;;;;;;2.18;81.66;98671.91;10422787;28;20041;-75
2021/11/29 10:45:03;;;;;;;30.30;22.58;;;;;;;2.32;81.18;98676.81;10422170;28;20044;-74
2021/11/29 10:50:06;;;;;;;26.38;23.58;;;;;;;2.24;81.22;98679.56;10423812;28;20499;-71
2021/11/29 10:55:10;;;;;;;22.98;20.98;;;;;;;2.23;81.61;98677.84;10403893;28;20395;-72
2021/11/29 11:00:15;;;;;;;24.30;20.92;;;;;;;2.29;81.43;98674.28;10403351;28;20064;-72
2021/11/29 11:05:20;;;;;;;22.60;20.40;;;;;;;2.41;81.60;98678.38;10403566;28;20041;-73
2021/11/29 11:10:23;;;;;;;22.75;20.42;;;;;;;2.28;81.41;98685.53;10402586;28;20073;-72
2021/11/29 11:15:25;;;;;;;22.88;20.90;;;;;;;2.47;80.96;98686.00;10402935;28;20037;-73
2021/11/29 11:20:36;;;;;;;24.95;21.67;;;;;;;2.20;82.84;98679.66;10404577;28;20072;-73
2021/11/29 11:25:42;;;;;;;21.90;19.95;;;;;;;2.23;82.16;98688.22;10420500;28;20088;-72
2021/11/29 11:30:45;;;;;;;21.10;19.05;;;;;;;2.15;82.26;98691.84;10419674;28;20136;-73
2021/11/29 11:35:53;;;;;;;22.02;19.95;;;;;;;2.28;81.97;98693.31;10384808;28;20054;-73
2021/11/29 11:40:55;;;;;;;22.02;19.85;;;;;;;2.36;81.47;98703.53;10419535;28;20103;-72
2021/11/29 11:45:57;;;;;;;24.05;21.60;;;;;;;2.18;82.39;98702.16;10401387;28;20065;-72
2021/11/29 11:50:59;;;;;;;23.85;21.45;;;;;;;2.30;82.08;98701.91;10418098;28;20128;-72
2021/11/29 11:56:01;;;;;;;27.50;22.65;;;;;;;2.31;81.31;98697.59;10421092;28;20042;-73
2021/11/29 12:01:10;;;;;;;22.48;20.55;;;;;;;2.22;82.57;98704.66;10418525;28;20053;-72
2021/11/29 12:06:18;;;;;;;23.25;20.85;;;;;;;2.19;81.95;98709.91;10418573;28;20041;-72
2021/11/29 12:11:26;;;;;;;;;;;;;;;2.12;83.28;98713.47;10400524;28;20059;-73
2021/11/29 12:16:38;;;;;;;22.35;20.08;;;;;;;2.23;83.13;98721.06;10418181;28;19929;-73
2021/11/29 12:21:42;;;;;;;22.30;20.25;;;;;;;2.30;82.08;98717.47;10401245;28;20464;-72
2021/11/29 12:26:48;;;;;;;20.50;18.85;;;;;;;2.15;83.46;98726.41;10418223;28;20569;-73
2021/11/29 12:31:50;;;;;;;20.30;18.60;;;;;;;2.26;82.36;98731.41;10417877;28;20057;-73
2021/11/29 12:36:58;;;;;;;19.48;16.83;;;;;;;2.33;81.12;98734.72;10418018;28;20041;-73
2021/11/29 12:42:00;;;;;;;18.33;16.58;;;;;;;2.22;82.57;98734.94;10418721;28;20048;-73
2021/11/29 12:47:19;;;;;;;19.20;17.50;;;;;;;2.36;81.82;98738.09;10418732;28;20033;-74
2021/11/29 12:52:36;;;;;;;16.60;15.38;;;;;;;2.43;81.42;98749.19;10400940;28;20153;-73
2021/11/29 12:57:40;;;;;;;18.17;16.67;;;;;;;2.48;81.48;98752.59;10400424;28;20073;-72
2021/11/29 13:02:50;;;;;;;18.02;16.42;;;;;;;2.38;81.37;98761.41;10417513;28;20506;-72
2021/11/29 13:08:33;;;;;;;18.67;17.15;;;;;;;2.28;81.46;98761.59;10417452;28;20124;-72
2021/11/29 13:13:38;;;;;;;18.00;16.42;;;;;;;2.29;81.40;98757.25;10291914;28;20520;-72
2021/11/29 13:18:52;;;;;;;18.08;16.50;;;;;;;2.22;81.76;98763.44;10275909;28;20145;-72
2021/11/29 13:24:17;;;;;;;18.42;16.60;;;;;;;2.31;82.29;98765.88;10291642;28;20055;-72
2021/11/29 13:29:30;;;;;;;20.60;18.70;;;;;;;2.21;82.45;98769.50;10290485;28;20047;-72
2021/11/29 13:34:34;;;;;;;20.50;18.60;;;;;;;2.23;82.33;98766.00;10290572;28;20086;-72
2021/11/29 13:39:39;;;;;;;18.10;16.52;;;;;;;2.41;80.89;98777.78;10291894;28;20245;-72
2021/11/29 13:44:47;;;;;;;19.05;17.52;;;;;;;2.27;81.31;98774.59;10324262;28;20049;-72
2021/11/29 13:49:56;;;;;;;18.30;16.80;;;;;;;2.28;81.17;98769.34;10406844;28;20109;-72
2021/11/29 13:55:18;;;;;;;16.75;15.15;;;;;;;2.33;80.95;98769.28;10389898;28;20132;-73
2021/11/29 14:00:33;;;;;;;17.48;15.90;;;;;;;2.36;80.21;98766.63;10405940;28;20061;-71
2021/11/29 14:05:38;;;;;;;18.80;17.15;;;;;;;2.24;80.78;98779.81;10424020;28;20072;-74
2021/11/29 14:10:42;;;;;;;21.52;19.58;;;;;;;2.29;80.22;98785.75;10424279;28;20064;-75
2021/11/29 14:16:08;;;;;;;18.08;16.52;;;;;;;2.24;80.46;98803.16;10422763;28;20121;-75
2021/11/29 14:21:15;;;;;;;15.27;14.00;;;;;;;2.29;80.00;98803.91;10423817;28;20044;-75
2021/11/29 14:26:38;;;;;;;13.53;12.43;;;;;;;2.18;79.82;98805.88;10388620;28;20052;-75
2021/11/29 14:31:41;;;;;;;13.45;12.38;;;;;;;1.82;81.91;98809.94;10388400;28;20198;-75
2021/11/29 14:36:48;;;;;;;14.73;13.55;;;;;;;1.97;81.44;98814.84;10422961;28;20494;-75
2021/11/29 14:42:03;;;;;;;14.35;13.15;;;;;;;2.12;80.07;98816.31;10405342;28;20048;-76
2021/11/29 14:47:18;;;;;;;13.73;12.48;;;;;;;1.98;80.52;98835.53;10422262;28;20038;-75
2021/11/29 14:52:21;;;;;;;13.38;12.27;;;;;;;1.98;80.27;98850.25;10402934;28;20049;-75
2021/11/29 14:57:24;;;;;;;60.15;37.63;;;;;;;2.13;79.78;98849.16;10421334;28;20037;-72
2021/11/29 15:02:26;;;;;;;17.90;16.42;;;;;;;1.98;80.60;98858.03;10421843;28;20041;-72
2021/11/29 15:07:31;;;;;;;15.35;14.25;;;;;;;2.01;80.41;98865.75;10404077;28;20458;-72
2021/11/29 15:12:39;;;;;;;14.55;13.45;;;;;;;1.86;81.19;98860.78;10403607;28;20124;-72
2021/11/29 15:17:46;;;;;;;11.98;10.82;;;;;;;1.92;80.62;98873.69;10402134;28;20037;-72
2021/11/29 15:22:53;;;;;;;14.30;10.63;;;;;;;2.11;79.39;98879.41;10420253;28;20057;-73
2021/11/29 15:28:15;;;;;;;9.32;8.63;;;;;;;2.07;79.65;98886.38;10402347;28;20064;-71
2021/11/29 15:33:22;;;;;;;11.55;10.65;;;;;;;1.96;80.37;98888.31;10401740;28;20040;-73
2021/11/29 15:38:35;;;;;;;11.57;10.63;;;;;;;2.13;79.74;98898.41;10420316;28;20132;-73
2021/11/29 15:43:43;;;;;;;11.32;10.43;;;;;;;1.94;80.82;98890.03;10402057;28;20053;-72
2021/11/29 15:48:47;;;;;;;21.20;19.23;;;;;;;1.85;80.88;98913.50;10418332;28;20511;-73
2021/11/29 15:53:51;;;;;;;14.65;13.07;;;;;;;1.95;80.14;98910.78;10418089;28;20045;-72
2021/11/29 15:58:55;;;;;;;11.02;10.13;;;;;;;1.85;80.56;98919.53;10400808;28;20042;-73
2021/11/29 16:03:58;;;;;;;11.82;10.93;;;;;;;1.93;80.34;98933.25;10418435;28;20104;-72
2021/11/29 16:08:59;;;;;;;13.07;12.07;;;;;;;1.95;80.81;98941.88;10418400;28;20037;-73
2021/11/29 16:14:01;;;;;;;13.50;12.40;;;;;;;2.01;80.61;98946.09;10418186;28;20124;-72
2021/11/29 16:19:03;;;;;;;15.88;14.48;;;;;;;1.99;81.00;98946.13;10418341;28;20061;-72
2021/11/29 16:24:06;;;;;;;15.80;14.60;;;;;;;2.05;80.87;98950.38;10400576;28;20045;-72
2021/11/29 16:29:08;;;;;;;12.75;11.82;;;;;;;2.00;80.74;98953.03;10400451;28;20060;-72
2021/11/29 16:34:10;;;;;;;10.80;10.00;;;;;;;1.95;81.05;98960.03;10418398;28;20041;-72
2021/11/29 16:39:11;;;;;;;11.02;10.20;;;;;;;2.06;80.96;98959.00;10418687;28;20076;-72
2021/11/29 16:44:13;;;;;;;10.88;9.98;;;;;;;2.07;80.76;98973.66;10418597;28;20041;-72
2021/11/29 16:49:15;;;;;;;11.75;10.85;;;;;;;2.08;81.32;98981.44;10419865;28;20455;-72
2021/11/29 16:54:17;;;;;;;12.85;11.85;;;;;;;1.88;83.95;98983.44;10416945;28;20049;-72
2021/11/29 16:59:20;;;;;;;13.52;12.48;;;;;;;1.75;85.69;99006.06;10416247;28;20448;-72
2021/11/29 17:04:22;;;;;;;15.23;13.98;;;;;;;1.62;87.04;99010.53;10381983;28;20049;-71
2021/11/29 17:09:24;;;;;;;16.75;15.50;;;;;;;1.60;88.21;99027.00;10416200;28;20045;-72
2021/11/29 17:14:26;;;;;;;15.32;14.13;;;;;;;1.65;87.88;99030.38;10415793;28;20194;-72
2021/11/29 17:19:28;;;;;;;16.08;14.88;;;;;;;1.69;87.66;99032.91;10424395;28;20042;-72
2021/11/29 17:24:31;;;;;;;14.45;13.27;;;;;;;1.57;87.13;99033.03;10424323;28;20076;-71
2021/11/29 17:29:33;;;;;;;18.80;17.00;;;;;;;1.55;87.50;99046.88;10406205;28;20107;-72
2021/11/29 17:34:41;;;;;;;18.10;16.33;;;;;;;1.54;87.17;99040.00;10406748;28;20037;-71
2021/11/29 17:39:46;;;;;;;17.02;15.57;;;;;;;1.78;85.75;99047.50;10423229;28;20075;-71
2021/11/29 17:44:48;;;;;;;15.07;13.88;;;;;;;1.69;86.20;99047.59;10406028;28;20065;-72
2021/11/29 17:49:49;;;;;;;15.52;14.18;;;;;;;1.72;86.23;99061.34;10423014;28;20125;-71
2021/11/29 17:54:51;;;;;;;13.15;12.15;;;;;;;1.69;86.07;99074.34;10422224;28;20045;-72
2021/11/29 17:59:53;;;;;;;14.13;13.02;;;;;;;1.64;86.19;99065.78;10422015;28;20045;-73
2021/11/29 18:04:55;;;;;;;13.65;12.65;;;;;;;1.69;86.05;99086.47;10421702;28;20546;-71
2021/11/29 18:15:38;;;;;;;14.52;13.25;;;;;;;1.72;85.85;99084.66;10422471;28;20403;-71
2021/11/29 18:20:41;;;;;;;14.88;13.73;;;;;;;1.71;85.61;99087.28;10421325;28;20064;-72
2021/11/29 18:25:44;;;;;;;15.57;14.18;;;;;;;1.61;86.05;99106.41;10421285;28;20034;-72
2021/11/29 18:30:46;;;;;;;18.73;17.02;;;;;;;1.58;86.84;99114.19;10404271;28;20160;-71
2021/11/29 18:35:48;;;;;;;21.52;19.52;;;;;;;1.71;86.37;99108.00;10403803;28;20160;-72
2021/11/29 18:40:50;;;;;;;17.00;15.68;;;;;;;1.60;86.94;99113.31;10388023;28;20056;-71
2021/11/29 18:45:52;;;;;;;17.63;16.30;;;;;;;1.59;87.38;99116.75;10422872;28;20052;-72
2021/11/29 18:50:55;;;;;;;18.55;17.02;;;;;;;1.65;87.20;99129.66;10421104;28;20116;-71
2021/11/29 18:55:58;;;;;;;20.83;18.80;;;;;;;1.63;87.62;99127.94;10402836;28;20042;-72
2021/11/29 19:01:00;;;;;;;20.50;18.58;;;;;;;1.65;87.44;99118.44;10419495;28;20037;-72
2021/11/29 19:06:03;;;;;;;19.13;17.58;;;;;;;1.58;87.85;99135.78;10404139;28;20055;-72
2021/11/29 19:11:07;;;;;;;19.25;17.63;;;;;;;1.46;88.49;99133.28;10424494;28;20077;-71
2021/11/29 19:16:09;;;;;;;19.48;17.83;;;;;;;1.46;88.43;99131.59;10424511;28;20049;-71
2021/11/29 19:21:12;;;;;;;21.67;19.88;;;;;;;1.51;88.13;99132.41;10405089;28;20052;-72
2021/11/29 19:26:14;;;;;;;22.15;19.65;;;;;;;1.61;88.08;99138.34;10422593;28;20038;-72
2021/11/29 19:31:16;;;;;;;18.83;17.33;;;;;;;1.77;86.89;99133.84;10422081;28;20080;-73
2021/11/29 19:36:18;;;;;;;20.17;18.58;;;;;;;1.67;87.11;99140.00;10421656;28;20064;-73
2021/11/29 19:46:26;;;;;;;20.38;18.75;;;;;;;1.71;87.22;99159.81;10422206;28;20132;-72
2021/11/29 19:51:29;;;;;;;21.55;19.77;;;;;;;1.65;87.33;99163.34;10423327;28;20037;-72
2021/11/29 19:56:32;;;;;;;23.48;21.67;;;;;;;1.69;87.59;99165.03;10403389;28;20037;-73
2021/11/29 20:01:34;;;;;;;23.05;21.25;;;;;;;1.54;88.32;99166.91;10402587;28;20053;-73
2021/11/29 20:06:42;;;;;;;23.13;21.17;;;;;;;1.66;87.67;99166.78;10402748;28;20539;-73
2021/11/29 20:11:46;;;;;;;22.98;21.08;;;;;;;1.68;87.21;99170.22;10419987;28;20499;-73
2021/11/29 20:16:53;;;;;;;20.00;18.17;;;;;;;1.62;87.56;99181.50;10418785;28;20045;-72
2021/11/29 20:21:56;;;;;;;21.90;20.08;;;;;;;1.70;87.42;99179.69;10402516;28;20526;-73
2021/11/29 20:27:00;;;;;;;19.63;18.00;;;;;;;1.65;87.57;99185.81;10404003;28;20120;-73
2021/11/29 20:32:05;;;;;;;19.70;18.05;;;;;;;1.63;88.53;99184.94;10404020;28;20438;-73
2021/11/29 20:37:06;;;;;;;21.27;19.65;;;;;;;1.50;89.18;99195.41;10419081;28;20073;-73
2021/11/29 20:42:08;;;;;;;20.83;19.05;;;;;;;1.39;89.69;99198.97;10386631;28;20503;-75
2021/11/29 20:47:10;;;;;;;20.38;18.52;;;;;;;1.39;90.53;99209.34;10387622;28;20044;-76
2021/11/29 20:52:13;;;;;;;20.73;19.02;;;;;;;1.41;90.06;99213.59;10401484;28;20119;-75
2021/11/29 20:57:15;;;;;;;20.13;18.42;;;;;;;1.37;90.56;99224.00;10403070;28;20080;-75
2021/11/29 21:02:18;;;;;;;21.52;19.38;;;;;;;1.36;91.09;99220.56;10420541;28;20041;-75
2021/11/29 21:07:21;;;;;;;20.88;19.17;;;;;;;1.41;90.80;99223.97;10403282;28;20113;-74
2021/11/29 21:12:28;;;;;;;20.88;19.20;;;;;;;1.26;91.49;99234.47;10385485;28;20128;-75
2021/11/29 21:17:30;;;;;;;19.58;17.83;;;;;;;1.33;90.78;99225.78;10418802;28;20049;-75
2021/11/29 21:22:34;;;;;;;19.38;17.88;;;;;;;1.35;91.21;99231.78;10417513;28;20112;-75
2021/11/29 21:27:36;;;;;;;18.38;16.98;;;;;;;1.39;90.43;99232.63;10399970;28;20573;-74
2021/11/29 21:32:38;;;;;;;18.92;17.42;;;;;;;1.34;90.66;99237.00;10418810;28;20116;-75
2021/11/29 21:37:40;;;;;;;20.77;19.15;;;;;;;1.37;91.04;99235.22;10400357;28;20042;-75
2021/11/29 21:42:43;;;;;;;18.92;17.33;;;;;;;1.36;90.69;99241.28;10417259;28;20522;-75
2021/11/29 21:47:46;;;;;;;20.27;18.58;;;;;;;1.26;91.43;99243.06;10417913;28;20037;-73
2021/11/29 21:52:48;;;;;;;19.30;17.67;;;;;;;1.37;90.47;99252.50;10400802;28;20072;-73
2021/11/29 21:57:51;;;;;;;20.17;18.58;;;;;;;1.26;91.42;99245.66;10401023;28;20117;-74
2021/11/29 22:02:53;;;;;;;19.60;18.10;;;;;;;1.37;90.07;99247.31;10422971;28;20045;-73
2021/11/29 22:08:06;;;;;;;18.60;17.13;;;;;;;1.30;90.37;99249.09;10410221;28;20061;-74
2021/11/29 22:13:08;;;;;;;19.20;17.60;;;;;;;1.36;90.04;99249.03;10409937;28;20041;-74
2021/11/29 22:18:10;;;;;;;17.75;16.35;;;;;;;1.32;89.88;99254.25;10407298;28;20112;-73
2021/11/29 22:23:12;;;;;;;17.77;16.33;;;;;;;1.40;89.08;99257.66;10424954;28;20041;-73
2021/11/29 22:28:14;;;;;;;16.75;15.27;;;;;;;1.48;88.09;99259.31;10423540;28;20037;-72
2021/11/29 22:33:16;;;;;;;16.52;15.23;;;;;;;1.35;89.03;99255.09;10423605;28;20111;-73
2021/11/29 22:38:20;;;;;;;16.77;15.48;;;;;;;1.39;88.67;99253.34;10406925;28;20115;-73
2021/11/29 22:43:24;;;;;;;16.30;15.10;;;;;;;1.42;88.56;99259.38;10424529;28;20041;-73
2021/11/29 22:48:26;;;;;;;17.75;16.35;;;;;;;1.30;89.62;99259.47;10390166;28;20049;-72
2021/11/29 22:53:28;;;;;;;16.10;14.90;;;;;;;1.35;88.82;99246.47;10405659;28;20049;-72
2021/11/29 22:58:29;;;;;;;17.83;16.33;;;;;;;1.37;88.24;99261.13;10405747;28;20106;-73
2021/11/29 23:03:34;;;;;;;16.25;14.95;;;;;;;1.36;87.92;99267.16;10422333;28;20044;-72
2021/11/29 23:08:37;;;;;;;16.30;14.95;;;;;;;1.30;88.26;99268.97;10402993;28;20041;-73
2021/11/29 23:13:39;;;;;;;15.88;14.68;;;;;;;1.28;87.73;99266.34;10403216;28;20517;-72
2021/11/29 23:18:43;;;;;;;16.23;14.93;;;;;;;1.30;88.14;99277.59;10403795;28;20037;-73
2021/11/29 23:23:45;;;;;;;16.92;15.50;;;;;;;1.39;87.15;99274.94;10403810;28;20054;-72
2021/11/29 23:28:47;;;;;;;16.60;15.30;;;;;;;1.29;87.35;99272.41;10421330;28;20567;-74